sensor_id;sensor_type;location;lat;lon;timestamp;temperature;humidity
14489;DHT22;7330;50.804;4.550;2023-02-12T00:01:34;10.10;99.90
14489;DHT22;7330;50.804;4.550;2023-02-12T00:04:01;10.10;99.90
14489;DHT22;7330;50.804;4.550;2023-02-12T00:06:28;10.10;99.90
14489;DHT22;7330;50.804;4.550;2023-02-12T00:11:23;10.00;99.90
14489;DHT22;7330;50.804;4.550;2023-02-12T00:13:50;10.00;99.90
14489;DHT22;7330;50.804;4.550;2023-02-12T00:16:19;10.00;99.90
14489;DHT22;7330;50.804;4.550;2023-02-12T00:18:46;10.00;99.90
14489;DHT22;7330;50.804;4.550;2023-02-12T00:21:13;10.00;99.90
14489;DHT22;7330;50.804;4.550;2023-02-12T00:23:41;9.90;99.90
14489;DHT22;7330;50.804;4.550;2023-02-12T00:26:09;9.90;99.90
14489;DHT22;7330;50.804;4.550;2023-02-12T00:31:04;9.90;99.90
14489;DHT22;7330;50.804;4.550;2023-02-12T00:33:32;9.90;99.90
14489;DHT22;7330;50.804;4.550;2023-02-12T00:35:59;9.90;99.90
14489;DHT22;7330;50.804;4.550;2023-02-12T00:38:26;9.90;99.90
14489;DHT22;7330;50.804;4.550;2023-02-12T00:40:53;9.80;99.90
14489;DHT22;7330;50.804;4.550;2023-02-12T00:43:20;9.90;99.90
14489;DHT22;7330;50.804;4.550;2023-02-12T00:45:47;9.90;99.90
14489;DHT22;7330;50.804;4.550;2023-02-12T00:48:14;9.90;99.90
14489;DHT22;7330;50.804;4.550;2023-02-12T00:50:44;9.80;99.90
14489;DHT22;7330;50.804;4.550;2023-02-12T00:53:11;9.90;99.90
14489;DHT22;7330;50.804;4.550;2023-02-12T00:55:38;9.80;99.90
14489;DHT22;7330;50.804;4.550;2023-02-12T01:02:59;9.80;99.90
14489;DHT22;7330;50.804;4.550;2023-02-12T01:05:26;9.80;99.90
14489;DHT22;7330;50.804;4.550;2023-02-12T01:07:54;9.70;99.90
14489;DHT22;7330;50.804;4.550;2023-02-12T01:10:22;9.70;99.90
14489;DHT22;7330;50.804;4.550;2023-02-12T01:12:49;9.70;99.90
14489;DHT22;7330;50.804;4.550;2023-02-12T01:15:16;9.70;99.90
14489;DHT22;7330;50.804;4.550;2023-02-12T01:17:43;9.70;99.90
14489;DHT22;7330;50.804;4.550;2023-02-12T01:22:37;9.60;99.90
14489;DHT22;7330;50.804;4.550;2023-02-12T01:27:32;9.60;99.90
14489;DHT22;7330;50.804;4.550;2023-02-12T01:29:59;9.60;99.90
14489;DHT22;7330;50.804;4.550;2023-02-12T01:34:53;9.60;99.90
14489;DHT22;7330;50.804;4.550;2023-02-12T01:37:20;9.60;99.90
14489;DHT22;7330;50.804;4.550;2023-02-12T01:47:13;9.60;99.90
14489;DHT22;7330;50.804;4.550;2023-02-12T01:49:42;9.60;99.90
14489;DHT22;7330;50.804;4.550;2023-02-12T01:52:12;9.60;99.90
14489;DHT22;7330;50.804;4.550;2023-02-12T01:54:39;9.70;99.90
14489;DHT22;7330;50.804;4.550;2023-02-12T01:57:07;9.60;99.90
14489;DHT22;7330;50.804;4.550;2023-02-12T02:09:24;9.80;99.90
14489;DHT22;7330;50.804;4.550;2023-02-12T02:11:51;9.70;99.90
14489;DHT22;7330;50.804;4.550;2023-02-12T02:14:35;9.60;99.90
14489;DHT22;7330;50.804;4.550;2023-02-12T02:17:05;9.60;99.90
14489;DHT22;7330;50.804;4.550;2023-02-12T02:19:42;9.60;99.90
14489;DHT22;7330;50.804;4.550;2023-02-12T02:22:16;9.60;99.90
14489;DHT22;7330;50.804;4.550;2023-02-12T02:25:01;9.60;99.90
14489;DHT22;7330;50.804;4.550;2023-02-12T02:27:34;9.60;99.90
14489;DHT22;7330;50.804;4.550;2023-02-12T02:30:21;9.60;99.90
14489;DHT22;7330;50.804;4.550;2023-02-12T02:37:46;9.50;99.90
14489;DHT22;7330;50.804;4.550;2023-02-12T02:40:15;9.50;99.90
14489;DHT22;7330;50.804;4.550;2023-02-12T02:45:10;9.50;99.90
14489;DHT22;7330;50.804;4.550;2023-02-12T02:47:40;9.40;99.90
14489;DHT22;7330;50.804;4.550;2023-02-12T02:50:09;9.40;99.90
14489;DHT22;7330;50.804;4.550;2023-02-12T02:52:38;9.40;99.90
14489;DHT22;7330;50.804;4.550;2023-02-12T02:57:35;9.30;99.90
14489;DHT22;7330;50.804;4.550;2023-02-12T03:02:47;9.30;99.90
14489;DHT22;7330;50.804;4.550;2023-02-12T03:05:16;9.30;99.90
14489;DHT22;7330;50.804;4.550;2023-02-12T03:07:45;9.20;99.90
14489;DHT22;7330;50.804;4.550;2023-02-12T03:12:42;9.30;99.90
14489;DHT22;7330;50.804;4.550;2023-02-12T03:15:10;9.30;99.90
14489;DHT22;7330;50.804;4.550;2023-02-12T03:17:39;9.30;99.90
14489;DHT22;7330;50.804;4.550;2023-02-12T03:25:04;9.20;99.90
14489;DHT22;7330;50.804;4.550;2023-02-12T03:27:35;9.20;99.90
14489;DHT22;7330;50.804;4.550;2023-02-12T03:30:03;9.20;99.90
14489;DHT22;7330;50.804;4.550;2023-02-12T03:35:01;9.20;99.90
14489;DHT22;7330;50.804;4.550;2023-02-12T03:40:02;9.20;99.90
14489;DHT22;7330;50.804;4.550;2023-02-12T03:42:33;9.20;99.90
14489;DHT22;7330;50.804;4.550;2023-02-12T03:45:02;9.30;99.90
14489;DHT22;7330;50.804;4.550;2023-02-12T03:47:32;9.30;99.90
14489;DHT22;7330;50.804;4.550;2023-02-12T03:50:05;9.30;99.90
14489;DHT22;7330;50.804;4.550;2023-02-12T03:52:35;9.20;99.90
14489;DHT22;7330;50.804;4.550;2023-02-12T03:55:02;9.20;99.90
14489;DHT22;7330;50.804;4.550;2023-02-12T03:57:29;9.20;99.90
14489;DHT22;7330;50.804;4.550;2023-02-12T04:02:27;9.20;99.90
14489;DHT22;7330;50.804;4.550;2023-02-12T04:04:53;9.20;99.90
14489;DHT22;7330;50.804;4.550;2023-02-12T04:07:20;9.20;99.90
14489;DHT22;7330;50.804;4.550;2023-02-12T04:12:19;9.20;99.90
14489;DHT22;7330;50.804;4.550;2023-02-12T04:14:49;9.20;99.90
14489;DHT22;7330;50.804;4.550;2023-02-12T04:17:19;9.20;99.90
14489;DHT22;7330;50.804;4.550;2023-02-12T04:22:20;9.20;99.90
14489;DHT22;7330;50.804;4.550;2023-02-12T04:24:54;9.10;99.90
14489;DHT22;7330;50.804;4.550;2023-02-12T04:29:52;9.10;99.90
14489;DHT22;7330;50.804;4.550;2023-02-12T04:32:22;9.10;99.90
14489;DHT22;7330;50.804;4.550;2023-02-12T04:34:51;9.10;99.90
14489;DHT22;7330;50.804;4.550;2023-02-12T04:37:21;9.10;99.90
14489;DHT22;7330;50.804;4.550;2023-02-12T04:39:49;9.10;99.90
14489;DHT22;7330;50.804;4.550;2023-02-12T04:44:44;9.10;99.90
14489;DHT22;7330;50.804;4.550;2023-02-12T04:47:11;9.10;99.90
14489;DHT22;7330;50.804;4.550;2023-02-12T04:49:38;9.10;99.90
14489;DHT22;7330;50.804;4.550;2023-02-12T04:52:05;9.10;99.90
14489;DHT22;7330;50.804;4.550;2023-02-12T04:54:33;9.10;99.90
14489;DHT22;7330;50.804;4.550;2023-02-12T04:57:00;9.10;99.90
14489;DHT22;7330;50.804;4.550;2023-02-12T05:04:21;9.00;99.90
14489;DHT22;7330;50.804;4.550;2023-02-12T05:09:15;9.00;99.90
14489;DHT22;7330;50.804;4.550;2023-02-12T05:11:44;9.00;99.90
14489;DHT22;7330;50.804;4.550;2023-02-12T05:14:10;8.90;99.90
14489;DHT22;7330;50.804;4.550;2023-02-12T05:16:37;8.90;99.90
14489;DHT22;7330;50.804;4.550;2023-02-12T05:19:04;8.90;99.90
14489;DHT22;7330;50.804;4.550;2023-02-12T05:21:33;8.90;99.90
14489;DHT22;7330;50.804;4.550;2023-02-12T05:24:00;8.90;99.90
14489;DHT22;7330;50.804;4.550;2023-02-12T05:26:27;8.90;99.90
14489;DHT22;7330;50.804;4.550;2023-02-12T05:28:55;8.90;99.90
14489;DHT22;7330;50.804;4.550;2023-02-12T05:31:22;8.90;99.90
14489;DHT22;7330;50.804;4.550;2023-02-12T05:33:48;8.90;99.90
14489;DHT22;7330;50.804;4.550;2023-02-12T05:36:16;8.90;99.90
14489;DHT22;7330;50.804;4.550;2023-02-12T05:41:11;8.90;99.90
14489;DHT22;7330;50.804;4.550;2023-02-12T05:43:38;8.90;99.90
14489;DHT22;7330;50.804;4.550;2023-02-12T05:46:06;8.90;99.90
14489;DHT22;7330;50.804;4.550;2023-02-12T05:48:34;8.90;99.90
14489;DHT22;7330;50.804;4.550;2023-02-12T05:51:01;8.90;99.90
14489;DHT22;7330;50.804;4.550;2023-02-12T05:53:29;8.90;99.90
14489;DHT22;7330;50.804;4.550;2023-02-12T06:03:18;8.90;99.90
14489;DHT22;7330;50.804;4.550;2023-02-12T06:10:39;8.90;99.90
14489;DHT22;7330;50.804;4.550;2023-02-12T06:13:05;8.90;99.90
14489;DHT22;7330;50.804;4.550;2023-02-12T06:15:34;8.80;99.90
14489;DHT22;7330;50.804;4.550;2023-02-12T06:18:01;8.80;99.90
14489;DHT22;7330;50.804;4.550;2023-02-12T06:25:24;8.90;99.90
14489;DHT22;7330;50.804;4.550;2023-02-12T06:27:50;8.90;99.90
14489;DHT22;7330;50.804;4.550;2023-02-12T06:30:17;8.80;99.90
14489;DHT22;7330;50.804;4.550;2023-02-12T06:32:46;8.80;99.90
14489;DHT22;7330;50.804;4.550;2023-02-12T06:35:14;8.80;99.90
14489;DHT22;7330;50.804;4.550;2023-02-12T06:37:41;8.80;99.90
14489;DHT22;7330;50.804;4.550;2023-02-12T06:40:08;8.80;99.90
14489;DHT22;7330;50.804;4.550;2023-02-12T06:42:36;8.80;99.90
14489;DHT22;7330;50.804;4.550;2023-02-12T06:49:57;8.80;99.90
14489;DHT22;7330;50.804;4.550;2023-02-12T06:52:23;8.80;99.90
14489;DHT22;7330;50.804;4.550;2023-02-12T06:54:50;8.80;99.90
14489;DHT22;7330;50.804;4.550;2023-02-12T06:57:17;8.80;99.90
14489;DHT22;7330;50.804;4.550;2023-02-12T06:59:45;8.80;99.90
14489;DHT22;7330;50.804;4.550;2023-02-12T07:02:12;8.80;99.90
14489;DHT22;7330;50.804;4.550;2023-02-12T07:09:32;8.80;99.90
14489;DHT22;7330;50.804;4.550;2023-02-12T07:11:59;8.80;99.90
14489;DHT22;7330;50.804;4.550;2023-02-12T07:14:26;8.80;99.90
14489;DHT22;7330;50.804;4.550;2023-02-12T07:16:54;8.70;99.90
14489;DHT22;7330;50.804;4.550;2023-02-12T07:19:21;8.70;99.90
14489;DHT22;7330;50.804;4.550;2023-02-12T07:21:48;8.70;99.90
14489;DHT22;7330;50.804;4.550;2023-02-12T07:24:15;8.80;99.90
14489;DHT22;7330;50.804;4.550;2023-02-12T07:26:42;8.70;99.90
14489;DHT22;7330;50.804;4.550;2023-02-12T07:34:05;8.80;99.90
14489;DHT22;7330;50.804;4.550;2023-02-12T07:38:59;8.70;99.90
14489;DHT22;7330;50.804;4.550;2023-02-12T07:41:27;8.70;99.90
14489;DHT22;7330;50.804;4.550;2023-02-12T07:46:21;8.80;99.90
14489;DHT22;7330;50.804;4.550;2023-02-12T07:48:50;8.70;99.90
14489;DHT22;7330;50.804;4.550;2023-02-12T07:51:19;8.80;99.90
14489;DHT22;7330;50.804;4.550;2023-02-12T07:53:46;8.80;99.90
14489;DHT22;7330;50.804;4.550;2023-02-12T07:56:14;8.80;99.90
14489;DHT22;7330;50.804;4.550;2023-02-12T07:58:41;8.80;99.90
14489;DHT22;7330;50.804;4.550;2023-02-12T08:01:10;8.70;99.90
14489;DHT22;7330;50.804;4.550;2023-02-12T08:11:00;8.90;99.90
14489;DHT22;7330;50.804;4.550;2023-02-12T08:13:27;8.80;99.90
14489;DHT22;7330;50.804;4.550;2023-02-12T08:16:07;8.90;99.90
14489;DHT22;7330;50.804;4.550;2023-02-12T08:21:02;8.80;99.90
14489;DHT22;7330;50.804;4.550;2023-02-12T08:23:29;8.80;99.90
14489;DHT22;7330;50.804;4.550;2023-02-12T08:28:24;8.90;99.90
14489;DHT22;7330;50.804;4.550;2023-02-12T08:30:51;8.90;99.90
14489;DHT22;7330;50.804;4.550;2023-02-12T08:33:18;8.80;99.90
14489;DHT22;7330;50.804;4.550;2023-02-12T08:35:44;8.90;99.90
14489;DHT22;7330;50.804;4.550;2023-02-12T08:38:11;8.90;99.90
14489;DHT22;7330;50.804;4.550;2023-02-12T08:43:05;8.90;99.90
14489;DHT22;7330;50.804;4.550;2023-02-12T08:45:33;8.90;99.90
14489;DHT22;7330;50.804;4.550;2023-02-12T08:48:00;9.00;99.90
14489;DHT22;7330;50.804;4.550;2023-02-12T08:50:27;9.00;99.90
14489;DHT22;7330;50.804;4.550;2023-02-12T08:52:53;9.00;99.90
14489;DHT22;7330;50.804;4.550;2023-02-12T09:00:14;9.00;99.90
14489;DHT22;7330;50.804;4.550;2023-02-12T09:05:10;9.10;99.90
14489;DHT22;7330;50.804;4.550;2023-02-12T09:07:37;9.00;99.90
14489;DHT22;7330;50.804;4.550;2023-02-12T09:12:31;9.10;99.90
14489;DHT22;7330;50.804;4.550;2023-02-12T09:14:57;9.10;99.90
14489;DHT22;7330;50.804;4.550;2023-02-12T09:17:24;9.10;99.90
14489;DHT22;7330;50.804;4.550;2023-02-12T09:22:20;9.20;99.90
14489;DHT22;7330;50.804;4.550;2023-02-12T09:24:47;9.20;99.90
14489;DHT22;7330;50.804;4.550;2023-02-12T09:32:07;9.30;99.90
14489;DHT22;7330;50.804;4.550;2023-02-12T09:34:34;9.30;99.90
14489;DHT22;7330;50.804;4.550;2023-02-12T09:37:01;9.30;99.90
14489;DHT22;7330;50.804;4.550;2023-02-12T09:39:29;9.30;99.90
14489;DHT22;7330;50.804;4.550;2023-02-12T09:44:49;9.40;99.90
14489;DHT22;7330;50.804;4.550;2023-02-12T09:52:33;9.50;99.90
14489;DHT22;7330;50.804;4.550;2023-02-12T10:02:23;9.50;99.90
14489;DHT22;7330;50.804;4.550;2023-02-12T10:04:50;9.60;99.90
14489;DHT22;7330;50.804;4.550;2023-02-12T10:07:20;9.60;99.90
14489;DHT22;7330;50.804;4.550;2023-02-12T10:09:57;9.60;99.90
14489;DHT22;7330;50.804;4.550;2023-02-12T10:12:29;9.60;99.90
14489;DHT22;7330;50.804;4.550;2023-02-12T10:15:05;9.60;99.90
14489;DHT22;7330;50.804;4.550;2023-02-12T10:17:39;9.60;99.90
14489;DHT22;7330;50.804;4.550;2023-02-12T10:22:37;9.70;99.90
14489;DHT22;7330;50.804;4.550;2023-02-12T10:27:38;9.70;99.90
14489;DHT22;7330;50.804;4.550;2023-02-12T10:30:13;9.70;99.90
14489;DHT22;7330;50.804;4.550;2023-02-12T10:32:41;9.80;99.90
14489;DHT22;7330;50.804;4.550;2023-02-12T10:44:56;10.00;99.90
14489;DHT22;7330;50.804;4.550;2023-02-12T10:52:20;10.00;99.90
14489;DHT22;7330;50.804;4.550;2023-02-12T10:54:51;10.00;99.90
14489;DHT22;7330;50.804;4.550;2023-02-12T10:59:46;10.10;99.90
14489;DHT22;7330;50.804;4.550;2023-02-12T11:02:23;10.10;99.90
14489;DHT22;7330;50.804;4.550;2023-02-12T11:04:51;10.10;99.90
14489;DHT22;7330;50.804;4.550;2023-02-12T11:07:20;10.10;99.90
14489;DHT22;7330;50.804;4.550;2023-02-12T11:09:47;10.10;99.90
14489;DHT22;7330;50.804;4.550;2023-02-12T11:12:16;10.10;99.90
14489;DHT22;7330;50.804;4.550;2023-02-12T11:17:13;10.10;99.90
14489;DHT22;7330;50.804;4.550;2023-02-12T11:19:45;10.20;99.90
14489;DHT22;7330;50.804;4.550;2023-02-12T11:22:28;10.20;99.90
14489;DHT22;7330;50.804;4.550;2023-02-12T11:24:58;10.20;99.90
14489;DHT22;7330;50.804;4.550;2023-02-12T11:27:26;10.20;99.90
14489;DHT22;7330;50.804;4.550;2023-02-12T11:30:12;10.20;99.90
14489;DHT22;7330;50.804;4.550;2023-02-12T11:32:39;10.20;99.90
14489;DHT22;7330;50.804;4.550;2023-02-12T11:35:09;10.20;99.90
14489;DHT22;7330;50.804;4.550;2023-02-12T11:40:08;10.20;99.90
14489;DHT22;7330;50.804;4.550;2023-02-12T11:42:39;10.30;99.90
14489;DHT22;7330;50.804;4.550;2023-02-12T11:45:14;10.30;99.90
14489;DHT22;7330;50.804;4.550;2023-02-12T11:50:14;10.30;99.90
14489;DHT22;7330;50.804;4.550;2023-02-12T11:52:46;10.30;99.90
14489;DHT22;7330;50.804;4.550;2023-02-12T11:55:20;10.40;99.90
14489;DHT22;7330;50.804;4.550;2023-02-12T11:57:48;10.40;99.90
14489;DHT22;7330;50.804;4.550;2023-02-12T12:00:15;10.40;99.90
14489;DHT22;7330;50.804;4.550;2023-02-12T12:02:44;10.40;99.90
14489;DHT22;7330;50.804;4.550;2023-02-12T12:05:14;10.50;99.90
14489;DHT22;7330;50.804;4.550;2023-02-12T12:07:42;10.40;99.90
14489;DHT22;7330;50.804;4.550;2023-02-12T12:10:11;10.50;99.90
14489;DHT22;7330;50.804;4.550;2023-02-12T12:12:42;10.50;99.90
14489;DHT22;7330;50.804;4.550;2023-02-12T12:17:55;10.60;99.90
14489;DHT22;7330;50.804;4.550;2023-02-12T12:23:06;10.60;99.90
14489;DHT22;7330;50.804;4.550;2023-02-12T12:25:39;10.50;99.90
14489;DHT22;7330;50.804;4.550;2023-02-12T12:28:10;10.50;99.90
14489;DHT22;7330;50.804;4.550;2023-02-12T12:31:00;10.50;99.90
14489;DHT22;7330;50.804;4.550;2023-02-12T12:33:32;10.50;99.90
14489;DHT22;7330;50.804;4.550;2023-02-12T12:36:04;10.50;99.90
14489;DHT22;7330;50.804;4.550;2023-02-12T12:38:37;10.60;99.90
14489;DHT22;7330;50.804;4.550;2023-02-12T12:41:08;10.60;99.90
14489;DHT22;7330;50.804;4.550;2023-02-12T12:58:25;10.90;99.90
14489;DHT22;7330;50.804;4.550;2023-02-12T13:08:20;10.80;99.90
14489;DHT22;7330;50.804;4.550;2023-02-12T13:13:19;10.80;99.90
14489;DHT22;7330;50.804;4.550;2023-02-12T13:20:46;10.90;99.90
14489;DHT22;7330;50.804;4.550;2023-02-12T13:25:46;10.90;99.90
14489;DHT22;7330;50.804;4.550;2023-02-12T13:30:42;10.90;99.90
14489;DHT22;7330;50.804;4.550;2023-02-12T13:35:39;10.90;99.90
14489;DHT22;7330;50.804;4.550;2023-02-12T13:38:08;11.00;99.90
14489;DHT22;7330;50.804;4.550;2023-02-12T13:40:40;10.90;99.90
14489;DHT22;7330;50.804;4.550;2023-02-12T13:45:37;10.90;99.90
14489;DHT22;7330;50.804;4.550;2023-02-12T13:48:18;10.90;99.90
14489;DHT22;7330;50.804;4.550;2023-02-12T13:50:46;11.00;99.90
14489;DHT22;7330;50.804;4.550;2023-02-12T13:55:50;11.00;99.90
14489;DHT22;7330;50.804;4.550;2023-02-12T13:58:38;10.90;99.90
14489;DHT22;7330;50.804;4.550;2023-02-12T14:01:07;11.00;99.90
14489;DHT22;7330;50.804;4.550;2023-02-12T14:03:35;10.90;99.90
14489;DHT22;7330;50.804;4.550;2023-02-12T14:08:33;10.90;99.90
14489;DHT22;7330;50.804;4.550;2023-02-12T14:11:04;11.00;99.90
14489;DHT22;7330;50.804;4.550;2023-02-12T14:13:32;10.90;99.90
14489;DHT22;7330;50.804;4.550;2023-02-12T14:18:29;11.00;99.90
14489;DHT22;7330;50.804;4.550;2023-02-12T14:23:43;11.00;99.90
14489;DHT22;7330;50.804;4.550;2023-02-12T14:26:11;11.00;99.90
14489;DHT22;7330;50.804;4.550;2023-02-12T14:31:29;10.90;99.90
14489;DHT22;7330;50.804;4.550;2023-02-12T14:39:28;10.90;99.90
14489;DHT22;7330;50.804;4.550;2023-02-12T14:42:40;10.90;99.90
14489;DHT22;7330;50.804;4.550;2023-02-12T14:44:44;10.90;99.90
14489;DHT22;7330;50.804;4.550;2023-02-12T14:52:12;10.90;99.90
14489;DHT22;7330;50.804;4.550;2023-02-12T14:57:18;10.90;99.90
14489;DHT22;7330;50.804;4.550;2023-02-12T14:59:47;10.90;99.90
14489;DHT22;7330;50.804;4.550;2023-02-12T15:02:16;10.90;99.90
14489;DHT22;7330;50.804;4.550;2023-02-12T15:04:44;10.80;99.90
14489;DHT22;7330;50.804;4.550;2023-02-12T15:07:13;10.80;99.90
14489;DHT22;7330;50.804;4.550;2023-02-12T15:09:43;10.80;99.90
14489;DHT22;7330;50.804;4.550;2023-02-12T15:12:14;10.80;99.90
14489;DHT22;7330;50.804;4.550;2023-02-12T15:17:10;10.80;99.90
14489;DHT22;7330;50.804;4.550;2023-02-12T15:19:38;10.80;99.90
14489;DHT22;7330;50.804;4.550;2023-02-12T15:24:33;10.80;99.90
14489;DHT22;7330;50.804;4.550;2023-02-12T15:39:17;11.00;99.90
14489;DHT22;7330;50.804;4.550;2023-02-12T15:41:46;10.80;99.90
14489;DHT22;7330;50.804;4.550;2023-02-12T15:46:45;10.70;99.90
14489;DHT22;7330;50.804;4.550;2023-02-12T15:49:18;10.70;99.90
14489;DHT22;7330;50.804;4.550;2023-02-12T15:51:46;10.70;99.90
14489;DHT22;7330;50.804;4.550;2023-02-12T15:54:13;10.70;99.90
14489;DHT22;7330;50.804;4.550;2023-02-12T15:56:44;10.70;99.90
14489;DHT22;7330;50.804;4.550;2023-02-12T15:59:15;10.70;99.90
14489;DHT22;7330;50.804;4.550;2023-02-12T16:01:50;10.70;99.90
14489;DHT22;7330;50.804;4.550;2023-02-12T16:04:17;10.70;99.90
14489;DHT22;7330;50.804;4.550;2023-02-12T16:06:44;10.80;99.90
14489;DHT22;7330;50.804;4.550;2023-02-12T16:14:12;10.70;99.90
14489;DHT22;7330;50.804;4.550;2023-02-12T16:16:45;10.70;99.90
14489;DHT22;7330;50.804;4.550;2023-02-12T16:21:40;10.80;99.90
14489;DHT22;7330;50.804;4.550;2023-02-12T16:24:16;10.70;99.90
14489;DHT22;7330;50.804;4.550;2023-02-12T16:26:46;10.70;99.90
14489;DHT22;7330;50.804;4.550;2023-02-12T16:29:15;10.80;99.90
14489;DHT22;7330;50.804;4.550;2023-02-12T16:31:51;10.70;99.90
14489;DHT22;7330;50.804;4.550;2023-02-12T16:34:32;10.80;99.90
14489;DHT22;7330;50.804;4.550;2023-02-12T16:36:59;10.70;99.90
14489;DHT22;7330;50.804;4.550;2023-02-12T16:41:54;10.70;99.90
14489;DHT22;7330;50.804;4.550;2023-02-12T16:44:26;10.70;99.90
14489;DHT22;7330;50.804;4.550;2023-02-12T16:46:56;10.70;99.90
14489;DHT22;7330;50.804;4.550;2023-02-12T16:49:36;10.70;99.90
14489;DHT22;7330;50.804;4.550;2023-02-12T16:52:19;10.70;99.90
14489;DHT22;7330;50.804;4.550;2023-02-12T16:54:47;10.70;99.90
14489;DHT22;7330;50.804;4.550;2023-02-12T16:57:14;10.70;99.90
14489;DHT22;7330;50.804;4.550;2023-02-12T16:59:42;10.70;99.90
14489;DHT22;7330;50.804;4.550;2023-02-12T17:02:10;10.70;99.90
14489;DHT22;7330;50.804;4.550;2023-02-12T17:07:08;10.70;99.90
14489;DHT22;7330;50.804;4.550;2023-02-12T17:09:42;10.60;99.90
14489;DHT22;7330;50.804;4.550;2023-02-12T17:14:35;10.60;99.90
14489;DHT22;7330;50.804;4.550;2023-02-12T17:17:03;10.60;99.90
14489;DHT22;7330;50.804;4.550;2023-02-12T17:21:57;10.60;99.90
14489;DHT22;7330;50.804;4.550;2023-02-12T17:24:25;10.60;99.90
14489;DHT22;7330;50.804;4.550;2023-02-12T17:26:52;10.60;99.90
14489;DHT22;7330;50.804;4.550;2023-02-12T17:31:47;10.60;99.90
14489;DHT22;7330;50.804;4.550;2023-02-12T17:36:42;10.60;99.90
14489;DHT22;7330;50.804;4.550;2023-02-12T17:39:10;10.60;99.90
14489;DHT22;7330;50.804;4.550;2023-02-12T18:01:22;10.50;99.90
14489;DHT22;7330;50.804;4.550;2023-02-12T18:03:48;10.50;99.90
14489;DHT22;7330;50.804;4.550;2023-02-12T18:06:20;10.50;99.90
14489;DHT22;7330;50.804;4.550;2023-02-12T18:08:47;10.50;99.90
14489;DHT22;7330;50.804;4.550;2023-02-12T18:11:14;10.50;99.90
14489;DHT22;7330;50.804;4.550;2023-02-12T18:16:10;10.50;99.90
14489;DHT22;7330;50.804;4.550;2023-02-12T18:18:38;10.50;99.90
14489;DHT22;7330;50.804;4.550;2023-02-12T18:25:59;10.50;99.90
14489;DHT22;7330;50.804;4.550;2023-02-12T18:28:29;10.50;99.90
14489;DHT22;7330;50.804;4.550;2023-02-12T18:30:56;10.50;99.90
14489;DHT22;7330;50.804;4.550;2023-02-12T18:33:23;10.50;99.90
14489;DHT22;7330;50.804;4.550;2023-02-12T18:38:19;10.50;99.90
14489;DHT22;7330;50.804;4.550;2023-02-12T18:40:46;10.50;99.90
14489;DHT22;7330;50.804;4.550;2023-02-12T18:48:06;10.50;99.90
14489;DHT22;7330;50.804;4.550;2023-02-12T18:53:01;10.50;99.90
14489;DHT22;7330;50.804;4.550;2023-02-12T18:55:29;10.40;99.90
14489;DHT22;7330;50.804;4.550;2023-02-12T19:02:50;10.40;99.90
14489;DHT22;7330;50.804;4.550;2023-02-12T19:05:17;10.40;99.90
14489;DHT22;7330;50.804;4.550;2023-02-12T19:10:11;10.40;99.90
14489;DHT22;7330;50.804;4.550;2023-02-12T19:12:39;10.40;99.90
14489;DHT22;7330;50.804;4.550;2023-02-12T19:15:06;10.40;99.90
14489;DHT22;7330;50.804;4.550;2023-02-12T19:17:33;10.30;99.90
14489;DHT22;7330;50.804;4.550;2023-02-12T19:22:27;10.30;99.90
14489;DHT22;7330;50.804;4.550;2023-02-12T19:24:54;10.40;99.90
14489;DHT22;7330;50.804;4.550;2023-02-12T19:27:21;10.40;99.90
14489;DHT22;7330;50.804;4.550;2023-02-12T19:32:16;10.40;99.90
14489;DHT22;7330;50.804;4.550;2023-02-12T19:39:38;10.50;99.90
14489;DHT22;7330;50.804;4.550;2023-02-12T19:54:22;10.50;99.90
14489;DHT22;7330;50.804;4.550;2023-02-12T19:56:49;10.40;99.90
14489;DHT22;7330;50.804;4.550;2023-02-12T19:59:18;10.40;99.90
14489;DHT22;7330;50.804;4.550;2023-02-12T20:04:13;10.30;99.90
14489;DHT22;7330;50.804;4.550;2023-02-12T20:09:09;10.30;99.90
14489;DHT22;7330;50.804;4.550;2023-02-12T20:11:37;10.30;99.90
14489;DHT22;7330;50.804;4.550;2023-02-12T20:19:01;10.30;99.90
14489;DHT22;7330;50.804;4.550;2023-02-12T20:21:28;10.30;99.90
14489;DHT22;7330;50.804;4.550;2023-02-12T20:23:55;10.30;99.90
14489;DHT22;7330;50.804;4.550;2023-02-12T20:33:45;10.20;99.90
14489;DHT22;7330;50.804;4.550;2023-02-12T20:36:12;10.20;99.90
14489;DHT22;7330;50.804;4.550;2023-02-12T20:38:40;10.20;99.90
14489;DHT22;7330;50.804;4.550;2023-02-12T20:41:09;10.10;99.90
14489;DHT22;7330;50.804;4.550;2023-02-12T20:43:36;10.10;99.90
14489;DHT22;7330;50.804;4.550;2023-02-12T20:46:03;10.00;99.90
14489;DHT22;7330;50.804;4.550;2023-02-12T20:48:31;10.00;99.90
14489;DHT22;7330;50.804;4.550;2023-02-12T20:55:53;9.90;99.90
14489;DHT22;7330;50.804;4.550;2023-02-12T21:00:47;9.80;99.90
14489;DHT22;7330;50.804;4.550;2023-02-12T21:05:41;9.60;99.90
14489;DHT22;7330;50.804;4.550;2023-02-12T21:08:07;9.60;99.90
14489;DHT22;7330;50.804;4.550;2023-02-12T21:10:34;9.60;99.90
14489;DHT22;7330;50.804;4.550;2023-02-12T21:30:12;9.20;99.90
14489;DHT22;7330;50.804;4.550;2023-02-12T21:37:33;9.20;99.90
14489;DHT22;7330;50.804;4.550;2023-02-12T21:40:00;9.00;99.90
14489;DHT22;7330;50.804;4.550;2023-02-12T21:44:54;8.90;99.90
14489;DHT22;7330;50.804;4.550;2023-02-12T21:59:43;8.80;99.90
14489;DHT22;7330;50.804;4.550;2023-02-12T22:04:37;8.70;99.90
14489;DHT22;7330;50.804;4.550;2023-02-12T22:07:04;8.50;99.90
14489;DHT22;7330;50.804;4.550;2023-02-12T22:11:59;8.30;99.90
14489;DHT22;7330;50.804;4.550;2023-02-12T22:14:26;8.30;99.90
14489;DHT22;7330;50.804;4.550;2023-02-12T22:16:54;8.30;99.90
14489;DHT22;7330;50.804;4.550;2023-02-12T22:19:21;8.20;99.90
14489;DHT22;7330;50.804;4.550;2023-02-12T22:21:48;8.20;99.90
14489;DHT22;7330;50.804;4.550;2023-02-12T22:24:16;8.10;99.90
14489;DHT22;7330;50.804;4.550;2023-02-12T22:26:43;8.10;99.90
14489;DHT22;7330;50.804;4.550;2023-02-12T22:29:10;8.00;99.90
14489;DHT22;7330;50.804;4.550;2023-02-12T22:34:06;7.90;99.90
14489;DHT22;7330;50.804;4.550;2023-02-12T22:36:34;7.80;99.90
14489;DHT22;7330;50.804;4.550;2023-02-12T22:43:56;7.70;99.90
14489;DHT22;7330;50.804;4.550;2023-02-12T22:46:23;7.70;99.90
14489;DHT22;7330;50.804;4.550;2023-02-12T22:48:50;7.70;99.90
14489;DHT22;7330;50.804;4.550;2023-02-12T22:53:45;7.60;99.90
14489;DHT22;7330;50.804;4.550;2023-02-12T22:56:12;7.50;99.90
14489;DHT22;7330;50.804;4.550;2023-02-12T22:58:39;7.50;99.90
14489;DHT22;7330;50.804;4.550;2023-02-12T23:01:06;7.50;99.90
14489;DHT22;7330;50.804;4.550;2023-02-12T23:03:33;7.40;99.90
14489;DHT22;7330;50.804;4.550;2023-02-12T23:06:01;7.40;99.90
14489;DHT22;7330;50.804;4.550;2023-02-12T23:08:29;7.30;99.90
14489;DHT22;7330;50.804;4.550;2023-02-12T23:10:58;7.30;99.90
14489;DHT22;7330;50.804;4.550;2023-02-12T23:13:25;7.30;99.90
14489;DHT22;7330;50.804;4.550;2023-02-12T23:15:52;7.30;99.90
14489;DHT22;7330;50.804;4.550;2023-02-12T23:18:19;7.10;99.90
14489;DHT22;7330;50.804;4.550;2023-02-12T23:25:40;7.00;99.90
14489;DHT22;7330;50.804;4.550;2023-02-12T23:37:56;6.90;99.90
14489;DHT22;7330;50.804;4.550;2023-02-12T23:45:17;6.70;99.90
14489;DHT22;7330;50.804;4.550;2023-02-12T23:50:11;6.60;99.90
14489;DHT22;7330;50.804;4.550;2023-02-12T23:52:38;6.60;99.90
